createdAt,value
2022-11-02T00:01:56.301Z,45.92
2022-11-02T00:03:58.511Z,50.97
2022-11-02T00:06:00.815Z,44.90
2022-11-02T00:08:02.955Z,43.90
2022-11-02T00:10:05.541Z,40.20
2022-11-02T00:12:08.097Z,39.72
2022-11-02T00:14:10.726Z,34.28
2022-11-02T00:16:15.939Z,37.85
2022-11-02T00:18:17.995Z,39.13
2022-11-02T00:20:23.782Z,36.40
2022-11-02T00:22:27.205Z,39.03
2022-11-02T00:24:31.337Z,36.17
2022-11-02T00:26:36.342Z,37.63
2022-11-02T00:28:38.426Z,36.60
2022-11-02T00:30:41.284Z,38.35
2022-11-02T00:32:43.632Z,41.33
2022-11-02T00:34:45.643Z,37.70
2022-11-02T00:36:51.740Z,39.30
2022-11-02T00:38:56.544Z,44.90
2022-11-02T00:41:00.553Z,53.67
2022-11-02T00:43:02.791Z,46.58
2022-11-02T00:45:05.469Z,46.30
2022-11-02T00:47:07.714Z,46.65
2022-11-02T00:49:10.155Z,42.67
2022-11-02T00:51:12.269Z,47.95
2022-11-02T00:53:17.126Z,47.10
2022-11-02T00:55:26.373Z,44.63
2022-11-02T00:57:31.817Z,45.90
2022-11-02T00:59:33.984Z,43.58
2022-11-02T01:01:37.082Z,39.53
2022-11-02T01:03:42.437Z,43.83
2022-11-02T01:09:47.059Z,46.58
2022-11-02T01:11:49.147Z,57.03
2022-11-02T01:14:41.715Z,68.38
2022-11-02T01:18:52.531Z,79.65
2022-11-02T01:20:58.780Z,73.95
2022-11-02T01:23:03.262Z,65.55
2022-11-02T01:25:06.144Z,57.30
2022-11-02T01:27:08.474Z,56.45
2022-11-02T01:29:11.765Z,54.38
2022-11-02T01:31:14.413Z,52.90
2022-11-02T01:33:16.436Z,53.35
2022-11-02T01:35:21.628Z,49.17
2022-11-02T01:37:23.675Z,54.10
2022-11-02T01:39:25.703Z,51.47
2022-11-02T01:41:27.759Z,49.42
2022-11-02T01:43:33.262Z,52.83
2022-11-02T01:45:35.739Z,52.35
2022-11-02T01:47:41.480Z,51.35
2022-11-02T01:49:46.690Z,50.10
2022-11-02T01:52:05.952Z,49.45
2022-11-02T01:54:16.249Z,51.63
2022-11-02T01:58:28.953Z,54.58
2022-11-02T02:00:31.521Z,55.65
2022-11-02T02:02:40.155Z,54.60
2022-11-02T02:04:44.274Z,80.05
2022-11-02T02:06:46.635Z,87.30
2022-11-02T02:08:51.633Z,126.88
2022-11-02T02:10:57.880Z,165.25
2022-11-02T02:13:01.108Z,188.73
2022-11-02T02:15:04.214Z,197.75
2022-11-02T02:17:12.609Z,201.07
2022-11-02T02:19:44.856Z,205.07
2022-11-02T02:21:52.834Z,166.23
2022-11-02T02:24:16.562Z,120.55
2022-11-02T02:26:59.776Z,106.10
2022-11-02T02:29:10.997Z,77.72
2022-11-02T02:31:24.771Z,74.25
2022-11-02T02:33:37.535Z,66.88
2022-11-02T02:36:03.461Z,59.83
2022-11-02T02:38:11.848Z,53.58
2022-11-02T02:40:19.588Z,59.08
2022-11-02T02:42:34.094Z,87.97
2022-11-02T02:44:39.440Z,81.93
2022-11-02T02:46:56.257Z,85.95
2022-11-02T02:49:01.586Z,76.90
2022-11-02T02:51:12.837Z,71.20
2022-11-02T02:53:16.796Z,70.68
2022-11-02T02:55:27.023Z,69.15
2022-11-02T02:57:32.626Z,74.03
2022-11-02T02:59:46.422Z,75.00
2022-11-02T03:01:50.112Z,73.85
2022-11-02T03:03:52.395Z,64.32
2022-11-02T03:06:07.531Z,60.70
2022-11-02T03:08:17.010Z,51.20
2022-11-02T03:10:43.359Z,58.28
2022-11-02T03:13:07.054Z,65.60
2022-11-02T03:15:16.304Z,86.28
2022-11-02T03:17:20.867Z,89.05
2022-11-02T03:19:44.701Z,75.18
2022-11-02T03:21:53.429Z,73.40
2022-11-02T03:24:24.898Z,73.65
2022-11-02T03:26:48.775Z,86.60
2022-11-02T03:28:54.034Z,104.93
2022-11-02T03:31:20.154Z,107.28
2022-11-02T03:33:28.117Z,84.95
2022-11-02T03:35:42.504Z,85.32
2022-11-02T03:38:07.438Z,82.45
2022-11-02T03:40:19.198Z,85.68
2022-11-02T03:42:26.184Z,87.60
2022-11-02T03:44:32.324Z,89.20
2022-11-02T03:46:38.712Z,76.88
2022-11-02T03:48:49.218Z,67.30
2022-11-02T03:50:55.180Z,56.25
2022-11-02T03:53:06.717Z,55.97
2022-11-02T03:55:17.615Z,58.95
2022-11-02T03:57:24.182Z,59.67
2022-11-02T03:59:31.819Z,63.30
2022-11-02T04:01:42.301Z,53.25
2022-11-02T04:03:46.481Z,53.80
2022-11-02T04:05:48.711Z,59.15
2022-11-02T04:08:14.837Z,50.42
2022-11-02T04:10:18.710Z,51.33
2022-11-02T04:12:39.453Z,54.05
2022-11-02T04:14:43.055Z,50.47
2022-11-02T04:17:11.305Z,56.85
2022-11-02T04:19:30.108Z,58.80
2022-11-02T04:21:38.251Z,53.63
2022-11-02T04:23:58.951Z,52.83
2022-11-02T04:26:01.266Z,53.80
2022-11-02T04:28:18.154Z,53.40
2022-11-02T04:30:24.358Z,56.10
2022-11-02T04:32:51.644Z,51.65
2022-11-02T04:34:53.877Z,63.10
2022-11-02T04:36:56.324Z,89.43
2022-11-02T04:38:59.109Z,90.63
2022-11-02T04:41:31.237Z,94.65
2022-11-02T04:43:34.207Z,63.58
2022-11-02T04:45:36.635Z,59.42
2022-11-02T04:47:39.065Z,56.03
2022-11-02T04:49:41.238Z,49.30
2022-11-02T04:51:49.905Z,55.60
2022-11-02T04:53:58.183Z,51.38
2022-11-02T04:56:00.247Z,68.10
2022-11-02T04:58:03.274Z,57.63
2022-11-02T05:00:07.918Z,62.05
2022-11-02T05:02:10.244Z,70.45
2022-11-02T05:04:13.407Z,65.13
2022-11-02T05:06:16.758Z,58.65
2022-11-02T05:08:18.643Z,60.50
2022-11-02T05:10:20.733Z,92.10
2022-11-02T05:12:28.922Z,92.18
2022-11-02T05:14:31.917Z,124.03
2022-11-02T05:16:35.710Z,100.80
2022-11-02T05:18:39.651Z,93.25
2022-11-02T05:20:42.838Z,95.20
2022-11-02T05:22:45.297Z,92.50
2022-11-02T05:24:49.111Z,84.45
2022-11-02T05:26:53.899Z,73.05
2022-11-02T05:28:58.418Z,69.22
2022-11-02T05:31:01.795Z,70.40
2022-11-02T05:33:06.578Z,64.05
2022-11-02T05:35:10.087Z,63.50
2022-11-02T05:37:14.003Z,55.15
2022-11-02T05:39:16.063Z,59.60
2022-11-02T05:41:18.213Z,57.75
2022-11-02T05:43:20.457Z,65.82
2022-11-02T05:45:23.719Z,71.88
2022-11-02T05:47:26.448Z,68.45
2022-11-02T05:49:28.251Z,59.20
2022-11-02T05:51:30.135Z,58.25
2022-11-02T05:53:34.117Z,58.33
2022-11-02T05:56:02.220Z,60.53
2022-11-02T05:58:04.508Z,61.08
2022-11-02T06:00:07.535Z,59.42
2022-11-02T06:02:14.014Z,63.00
2022-11-02T06:04:15.967Z,62.85
2022-11-02T06:06:18.137Z,57.05
2022-11-02T06:08:23.183Z,62.42
2022-11-02T06:10:25.290Z,58.75
2022-11-02T06:12:27.106Z,60.95
2022-11-02T06:14:28.903Z,69.03
2022-11-02T06:16:31.314Z,62.58
2022-11-02T06:18:33.580Z,63.90
2022-11-02T06:20:35.471Z,54.78
2022-11-02T06:22:46.782Z,54.70
2022-11-02T06:24:48.562Z,58.67
2022-11-02T06:26:50.413Z,59.45
2022-11-02T06:28:52.610Z,49.65
2022-11-02T06:30:55.305Z,69.90
2022-11-02T06:32:59.441Z,59.40
2022-11-02T06:35:03.687Z,61.85
2022-11-02T06:37:05.420Z,101.82
2022-11-02T06:39:07.560Z,103.65
2022-11-02T06:41:09.860Z,84.95
2022-11-02T06:43:17.599Z,73.50
2022-11-02T06:45:19.732Z,72.05
2022-11-02T06:47:21.427Z,70.30
2022-11-02T06:49:23.606Z,64.90
2022-11-02T06:51:25.440Z,59.97
2022-11-02T06:53:27.283Z,63.50
2022-11-02T06:55:29.277Z,61.13
2022-11-02T06:57:36.668Z,59.63
2022-11-02T06:59:38.549Z,55.83
2022-11-02T07:01:43.091Z,50.92
2022-11-02T07:03:45.184Z,59.78
2022-11-02T07:05:52.092Z,66.93
2022-11-02T07:07:54.906Z,73.68
2022-11-02T07:09:57.025Z,58.88
2022-11-02T07:11:58.835Z,60.05
2022-11-02T07:14:00.655Z,52.15
2022-11-02T07:16:02.441Z,49.97
2022-11-02T07:18:06.244Z,58.47
2022-11-02T07:20:10.698Z,60.22
2022-11-02T07:22:12.572Z,112.55
2022-11-02T07:24:14.592Z,113.45
2022-11-02T07:26:16.819Z,141.32
2022-11-02T07:28:19.395Z,140.80
2022-11-02T07:30:21.509Z,159.85
2022-11-02T07:32:23.831Z,211.40
2022-11-02T07:34:25.759Z,199.43
2022-11-02T07:36:27.705Z,195.88
2022-11-02T07:38:29.881Z,184.60
2022-11-02T07:40:34.496Z,156.13
2022-11-02T07:42:36.722Z,129.35
2022-11-02T07:44:41.376Z,87.95
2022-11-02T07:46:43.933Z,79.45
2022-11-02T07:48:47.182Z,67.88
2022-11-02T07:50:48.975Z,57.45
2022-11-02T07:52:56.252Z,54.25
2022-11-02T07:54:58.114Z,39.97
2022-11-02T07:57:00.009Z,44.10
2022-11-02T07:59:01.899Z,43.33
2022-11-02T08:01:04.107Z,39.78
2022-11-02T08:03:08.465Z,58.78
2022-11-02T08:05:10.587Z,127.85
2022-11-02T08:07:12.689Z,212.90
2022-11-02T08:09:15.845Z,245.55
2022-11-02T08:11:17.700Z,373.73
2022-11-02T08:13:21.667Z,441.38
2022-11-02T08:15:24.436Z,315.20
2022-11-02T08:17:29.512Z,302.10
2022-11-02T08:19:31.517Z,219.50
2022-11-02T08:21:33.349Z,209.38
2022-11-02T08:23:35.206Z,156.55
2022-11-02T08:25:45.885Z,152.40
2022-11-02T08:27:47.957Z,155.80
2022-11-02T08:29:49.943Z,171.05
2022-11-02T08:31:52.100Z,141.32
2022-11-02T08:33:54.471Z,130.95
2022-11-02T08:36:02.977Z,101.82
2022-11-02T08:38:05.950Z,110.18
2022-11-02T08:40:08.905Z,104.75
2022-11-02T08:42:10.913Z,96.05
2022-11-02T08:44:13.247Z,89.35
2022-11-02T08:46:16.752Z,85.07
2022-11-02T08:48:19.291Z,74.65
2022-11-02T08:50:21.956Z,64.70
2022-11-02T08:52:24.384Z,62.60
2022-11-02T08:54:26.487Z,143.13
2022-11-02T08:56:28.745Z,190.38
2022-11-02T08:58:33.123Z,163.00
2022-11-02T09:00:35.941Z,139.52
2022-11-02T09:02:38.476Z,107.90
2022-11-02T09:04:40.663Z,91.25
2022-11-02T09:06:45.343Z,91.82
2022-11-02T09:08:47.356Z,90.05
2022-11-02T09:10:51.951Z,90.50
2022-11-02T09:12:54.589Z,63.65
2022-11-02T09:14:56.522Z,54.65
2022-11-02T09:16:58.282Z,53.47
2022-11-02T09:19:00.332Z,49.17
2022-11-02T09:21:03.788Z,43.88
2022-11-02T09:23:05.654Z,55.00
2022-11-02T09:25:08.031Z,64.38
2022-11-02T09:27:35.302Z,81.07
2022-11-02T09:29:37.318Z,70.20
2022-11-02T09:31:39.500Z,65.03
2022-11-02T09:33:43.960Z,60.85
2022-11-02T09:35:48.626Z,63.47
2022-11-02T09:37:51.184Z,53.20
2022-11-02T09:39:53.499Z,48.45
2022-11-02T09:42:28.331Z,53.20
2022-11-02T09:45:00.805Z,44.88
2022-11-02T09:47:55.759Z,77.35
2022-11-02T09:49:28.645Z,232.95
2022-11-02T09:51:37.841Z,203.35
2022-11-02T09:54:21.587Z,177.85
2022-11-02T09:56:27.464Z,121.68
2022-11-02T09:58:36.928Z,104.53
2022-11-02T10:00:42.017Z,106.82
2022-11-02T10:02:49.545Z,106.85
2022-11-02T10:05:16.510Z,105.60
2022-11-02T10:07:43.370Z,146.52
2022-11-02T10:10:00.086Z,206.60
2022-11-02T10:12:24.175Z,201.00
2022-11-02T10:14:38.247Z,130.57
2022-11-02T10:16:52.666Z,111.40
2022-11-02T10:18:55.278Z,95.75
2022-11-02T10:21:02.684Z,92.25
2022-11-02T10:23:09.711Z,84.30
2022-11-02T10:25:16.455Z,74.65
2022-11-02T10:27:32.290Z,82.70
2022-11-02T10:29:43.656Z,85.20
2022-11-02T10:31:46.553Z,101.20
2022-11-02T10:33:50.010Z,109.93
2022-11-02T10:36:18.184Z,108.47
2022-11-02T10:38:35.207Z,102.40
2022-11-02T10:41:03.201Z,102.68
2022-11-02T10:43:20.309Z,107.65
2022-11-02T10:45:59.659Z,102.78
2022-11-02T10:48:01.939Z,93.85
2022-11-02T10:50:35.524Z,85.28
2022-11-02T10:52:39.837Z,92.63
2022-11-02T10:54:42.238Z,92.50
2022-11-02T10:56:47.247Z,84.68
2022-11-02T10:59:14.494Z,77.25
2022-11-02T11:01:17.037Z,65.25
2022-11-02T11:03:19.957Z,70.95
2022-11-02T11:05:22.023Z,78.05
2022-11-02T11:07:27.944Z,67.95
2022-11-02T11:09:42.925Z,73.22
2022-11-02T11:12:03.160Z,89.60
2022-11-02T11:19:40.943Z,107.68
2022-11-02T11:21:43.680Z,103.70
2022-11-02T11:23:46.077Z,95.65
2022-11-02T11:26:02.124Z,83.22
2022-11-02T11:28:22.800Z,79.72
2022-11-02T11:30:59.481Z,59.30
2022-11-02T11:32:54.698Z,58.03
2022-11-02T11:35:06.934Z,61.17
2022-11-02T11:37:15.744Z,47.90
2022-11-02T11:39:28.875Z,48.53
2022-11-02T11:41:33.470Z,48.75
2022-11-02T11:43:38.627Z,45.17
2022-11-02T11:45:52.999Z,47.03
2022-11-02T11:48:02.275Z,48.28
2022-11-02T11:50:13.933Z,46.72
2022-11-02T11:52:31.943Z,52.17
2022-11-02T11:54:34.270Z,53.63
2022-11-02T11:56:36.499Z,50.53
2022-11-02T11:58:50.937Z,51.22
2022-11-02T12:01:12.449Z,49.28
2022-11-02T12:03:16.353Z,56.58
2022-11-02T12:05:20.968Z,61.33
2022-11-02T12:07:25.728Z,57.47
2022-11-02T12:09:36.763Z,55.88
2022-11-02T12:11:41.528Z,66.53
2022-11-02T12:14:25.828Z,63.42
2022-11-02T12:16:34.401Z,59.00
2022-11-02T12:18:56.812Z,55.10
2022-11-02T12:21:17.309Z,52.85
2022-11-02T12:23:39.711Z,48.05
2022-11-02T12:26:18.585Z,43.85
2022-11-02T12:28:40.903Z,51.28
2022-11-02T12:31:04.067Z,41.25
2022-11-02T12:33:17.284Z,46.78
2022-11-02T12:35:41.635Z,45.80
2022-11-02T12:38:08.184Z,49.63
2022-11-02T12:40:13.088Z,47.72
2022-11-02T12:42:35.810Z,51.67
2022-11-02T12:45:09.681Z,58.80
2022-11-02T12:47:37.091Z,50.60
2022-11-02T12:49:52.834Z,56.03
2022-11-02T12:52:28.401Z,51.63
2022-11-02T12:54:54.388Z,57.67
2022-11-02T12:56:56.891Z,60.03
2022-11-02T12:59:00.538Z,64.97
2022-11-02T13:01:18.328Z,71.53
2022-11-02T13:03:29.093Z,74.45
2022-11-02T13:05:39.928Z,75.72
2022-11-02T13:07:50.571Z,64.45
2022-11-02T13:10:08.427Z,65.28
2022-11-02T13:12:15.206Z,56.08
2022-11-02T13:14:22.406Z,56.58
2022-11-02T13:17:02.507Z,56.53
2022-11-02T13:19:07.142Z,60.03
2022-11-02T13:21:13.943Z,68.50
2022-11-02T13:23:26.877Z,54.35
2022-11-02T13:25:37.701Z,59.00
2022-11-02T13:27:50.767Z,69.80
2022-11-02T13:29:56.705Z,68.43
2022-11-02T13:32:07.022Z,66.68
2022-11-02T13:34:15.528Z,58.15
2022-11-02T13:36:18.849Z,57.63
2022-11-02T13:38:39.384Z,57.15
2022-11-02T13:40:59.823Z,57.65
2022-11-02T13:43:10.882Z,58.88
2022-11-02T13:45:38.681Z,52.53
2022-11-02T13:47:46.781Z,57.30
2022-11-02T13:49:53.995Z,53.83
2022-11-02T13:52:13.860Z,108.75
2022-11-02T13:54:40.619Z,111.70
2022-11-02T13:56:43.597Z,102.97
2022-11-02T13:58:54.097Z,92.38
2022-11-02T14:01:01.604Z,92.85
2022-11-02T14:03:28.130Z,81.70
2022-11-02T14:05:36.004Z,83.65
2022-11-02T14:07:41.900Z,91.88
2022-11-02T14:09:45.367Z,76.00
2022-11-02T14:11:49.921Z,83.13
2022-11-02T14:13:52.253Z,84.22
2022-11-02T14:15:54.335Z,81.72
2022-11-02T14:17:57.010Z,90.65
2022-11-02T14:20:37.231Z,108.57
2022-11-02T14:22:39.028Z,123.30
2022-11-02T14:24:41.060Z,133.95
2022-11-02T14:27:13.655Z,140.23
2022-11-02T14:29:47.340Z,117.43
2022-11-02T14:31:57.311Z,106.75
2022-11-02T14:34:25.191Z,94.18
2022-11-02T14:36:55.357Z,91.05
2022-11-02T14:39:17.779Z,98.03
2022-11-02T14:41:33.056Z,91.57
2022-11-02T14:44:12.373Z,77.45
2022-11-02T14:46:53.356Z,76.80
2022-11-02T14:48:58.957Z,72.68
2022-11-02T14:51:12.196Z,90.07
2022-11-02T14:53:25.783Z,88.38
2022-11-02T14:55:31.561Z,90.53
2022-11-02T14:57:42.984Z,115.82
2022-11-02T14:59:49.325Z,145.35
2022-11-02T15:02:00.030Z,182.05
2022-11-02T15:04:08.082Z,167.88
2022-11-02T15:06:25.655Z,205.80
2022-11-02T15:08:32.256Z,180.70
2022-11-02T15:10:43.397Z,181.95
2022-11-02T15:12:47.930Z,194.38
2022-11-02T15:14:49.996Z,193.68
2022-11-02T15:16:54.426Z,176.60
2022-11-02T15:19:35.002Z,154.40
2022-11-02T15:21:37.833Z,119.78
2022-11-02T15:24:04.782Z,114.68
2022-11-02T15:26:12.402Z,124.18
2022-11-02T15:28:17.936Z,130.32
2022-11-02T15:30:27.797Z,126.45
2022-11-02T15:32:35.337Z,150.80
2022-11-02T15:34:49.996Z,184.68
2022-11-02T15:36:52.506Z,155.32
2022-11-02T15:38:55.331Z,144.30
2022-11-02T15:41:17.402Z,131.75
2022-11-02T15:46:12.296Z,106.93
2022-11-02T15:48:51.584Z,91.90
2022-11-02T15:51:14.280Z,72.07
2022-11-02T15:53:25.376Z,65.07
2022-11-02T15:56:11.973Z,69.57
2022-11-02T15:58:33.010Z,63.13
2022-11-02T16:00:35.219Z,61.33
2022-11-02T16:02:41.413Z,57.10
2022-11-02T16:04:50.401Z,61.10
2022-11-02T16:06:53.655Z,63.85
2022-11-02T16:09:01.599Z,64.30
2022-11-02T16:11:13.971Z,64.40
2022-11-02T16:13:20.973Z,61.05
2022-11-02T16:15:23.174Z,55.65
2022-11-02T16:17:28.191Z,57.75
2022-11-02T16:19:30.704Z,47.85
2022-11-02T16:21:35.555Z,52.08
2022-11-02T16:23:40.453Z,52.33
2022-11-02T16:25:50.469Z,42.35
2022-11-02T16:27:52.808Z,52.60
2022-11-02T16:29:54.939Z,56.65
2022-11-02T16:31:58.332Z,65.72
2022-11-02T16:34:23.081Z,64.38
2022-11-02T16:36:45.505Z,58.20
2022-11-02T16:39:25.235Z,52.15
2022-11-02T16:41:32.197Z,48.45
2022-11-02T16:43:36.267Z,46.13
2022-11-02T16:45:43.364Z,50.05
2022-11-02T16:47:46.850Z,69.80
2022-11-02T16:49:51.927Z,59.33
2022-11-02T16:51:56.707Z,61.92
2022-11-02T16:54:18.440Z,62.22
2022-11-02T16:56:27.814Z,57.42
2022-11-02T16:58:29.964Z,49.58
2022-11-02T17:00:37.487Z,45.72
2022-11-02T17:02:42.118Z,44.10
2022-11-02T17:04:47.089Z,66.05
2022-11-02T17:06:54.010Z,89.53
2022-11-02T17:08:56.287Z,90.05
2022-11-02T17:11:01.136Z,54.95
2022-11-02T17:13:07.357Z,48.38
2022-11-02T17:15:21.087Z,53.13
2022-11-02T17:17:29.974Z,47.17
2022-11-02T17:19:40.853Z,39.80
2022-11-02T17:21:44.518Z,49.63
2022-11-02T17:23:48.366Z,84.38
2022-11-02T17:29:46.182Z,76.68
2022-11-02T17:31:56.525Z,67.32
2022-11-02T17:34:02.511Z,54.92
2022-11-02T17:36:07.528Z,49.65
2022-11-02T17:38:10.260Z,56.30
2022-11-02T17:40:13.182Z,55.85
2022-11-02T17:42:35.269Z,64.20
2022-11-02T17:44:37.375Z,57.28
2022-11-02T17:46:41.729Z,51.83
2022-11-02T17:48:46.957Z,51.75
2022-11-02T17:50:53.337Z,44.38
2022-11-02T17:52:57.626Z,52.08
2022-11-02T17:54:59.597Z,52.17
2022-11-02T17:57:02.383Z,45.88
2022-11-02T17:59:04.477Z,50.40
2022-11-02T18:01:07.589Z,41.72
2022-11-02T18:03:16.053Z,44.25
2022-11-02T18:05:25.764Z,40.75
2022-11-02T18:07:27.833Z,54.30
2022-11-02T18:09:30.438Z,69.75
2022-11-02T18:11:32.344Z,68.40
2022-11-02T18:13:34.405Z,78.65
2022-11-02T18:15:36.763Z,75.53
2022-11-02T18:17:39.218Z,64.20
2022-11-02T18:19:44.367Z,64.05
2022-11-02T18:21:46.466Z,55.47
2022-11-02T18:23:48.973Z,74.00
2022-11-02T18:25:53.925Z,92.78
2022-11-02T18:28:01.493Z,114.60
2022-11-02T18:38:10.763Z,106.93
2022-11-02T18:40:15.257Z,145.93
2022-11-02T18:42:17.376Z,146.95
2022-11-02T18:44:19.937Z,132.10
2022-11-02T18:46:24.331Z,113.20
2022-11-02T18:48:29.195Z,91.97
2022-11-02T18:50:31.151Z,87.55
2022-11-02T18:52:33.518Z,85.82
2022-11-02T18:54:35.584Z,90.20
2022-11-02T18:56:37.615Z,92.32
2022-11-02T18:58:39.905Z,76.10
2022-11-02T19:00:42.095Z,95.60
2022-11-02T19:02:44.100Z,91.72
2022-11-02T19:04:46.035Z,89.32
2022-11-02T19:07:06.504Z,76.20
2022-11-02T19:09:20.443Z,85.72
2022-11-02T19:11:23.151Z,90.10
2022-11-02T19:13:25.163Z,83.65
2022-11-02T19:15:27.042Z,86.65
2022-11-02T19:17:29.403Z,71.90
2022-11-02T19:19:31.682Z,64.65
2022-11-02T19:21:33.442Z,68.47
2022-11-02T19:23:35.369Z,68.93
2022-11-02T19:25:37.402Z,77.65
2022-11-02T19:27:39.758Z,68.75
2022-11-02T19:29:41.808Z,68.85
2022-11-02T19:31:44.371Z,59.83
2022-11-02T19:34:39.794Z,50.35
2022-11-02T19:36:43.562Z,55.22
2022-11-02T19:38:45.380Z,55.17
2022-11-02T19:40:47.299Z,64.07
2022-11-02T19:42:49.417Z,66.07
2022-11-02T19:44:51.281Z,94.60
2022-11-02T19:46:53.452Z,77.72
2022-11-02T19:48:57.987Z,58.15
2022-11-02T19:51:17.593Z,70.78
2022-11-02T19:53:22.419Z,80.65
2022-11-02T19:55:28.762Z,82.53
2022-11-02T19:57:33.309Z,74.63
2022-11-02T19:59:35.575Z,57.88
2022-11-02T20:01:42.688Z,56.38
2022-11-02T20:03:46.600Z,53.50
2022-11-02T20:05:48.933Z,46.55
2022-11-02T20:07:52.067Z,56.55
2022-11-02T20:09:57.195Z,57.67
2022-11-02T20:12:03.147Z,47.60
2022-11-02T20:14:05.869Z,47.35
2022-11-02T20:16:09.312Z,50.40
2022-11-02T20:18:19.354Z,46.50
2022-11-02T20:20:22.270Z,46.70
2022-11-02T20:22:24.533Z,49.15
2022-11-02T20:24:28.761Z,53.90
2022-11-02T20:26:34.061Z,52.08
2022-11-02T20:28:41.166Z,46.28
2022-11-02T20:30:43.674Z,49.80
2022-11-02T20:32:46.175Z,49.65
2022-11-02T20:34:48.240Z,63.85
2022-11-02T20:36:50.786Z,56.25
2022-11-02T20:38:54.427Z,52.67
2022-11-02T20:41:06.511Z,48.58
2022-11-02T20:43:08.591Z,52.63
2022-11-02T20:45:10.990Z,46.47
2022-11-02T20:47:13.117Z,51.13
2022-11-02T20:49:22.712Z,48.10
2022-11-02T20:51:37.340Z,56.53
2022-11-02T20:53:40.306Z,50.38
2022-11-02T20:55:45.082Z,52.88
2022-11-02T20:57:50.959Z,49.75
2022-11-02T20:59:53.292Z,53.30
2022-11-02T21:01:55.595Z,52.90
2022-11-02T21:03:57.801Z,49.17
2022-11-02T21:06:05.558Z,52.50
2022-11-02T21:08:07.811Z,62.83
2022-11-02T21:10:10.758Z,63.40
2022-11-02T21:12:34.463Z,60.83
2022-11-02T21:14:38.880Z,54.42
2022-11-02T21:16:41.097Z,51.85
2022-11-02T21:18:43.243Z,51.72
2022-11-02T21:20:45.716Z,53.75
2022-11-02T21:22:50.487Z,59.72
2022-11-02T21:24:52.765Z,56.17
2022-11-02T21:26:55.291Z,53.65
2022-11-02T21:28:57.295Z,55.83
2022-11-02T21:31:08.039Z,57.97
2022-11-02T21:33:10.283Z,57.38
2022-11-02T21:35:12.146Z,50.40
2022-11-02T21:37:17.029Z,44.78
2022-11-02T21:39:20.055Z,45.72
2022-11-02T21:41:29.125Z,48.88
2022-11-02T21:43:32.548Z,38.80
2022-11-02T21:45:37.853Z,46.97
2022-11-02T21:47:40.606Z,51.90
2022-11-02T21:49:42.805Z,46.88
2022-11-02T21:51:45.201Z,43.72
2022-11-02T21:53:48.570Z,48.78
2022-11-02T21:56:02.711Z,43.22
2022-11-02T21:58:04.792Z,45.22
2022-11-02T22:00:07.408Z,51.33
2022-11-02T22:02:14.632Z,44.38
2022-11-02T22:04:25.411Z,49.03
2022-11-02T22:06:31.318Z,45.47
2022-11-02T22:08:42.551Z,41.15
2022-11-02T22:10:44.827Z,47.17
2022-11-02T22:13:05.655Z,41.80
2022-11-02T22:15:08.730Z,45.25
2022-11-02T22:17:22.082Z,47.75
2022-11-02T22:19:31.213Z,48.28
2022-11-02T22:21:36.841Z,41.10
2022-11-02T22:23:39.970Z,44.90
2022-11-02T22:25:41.926Z,50.78
2022-11-02T22:27:44.084Z,47.47
2022-11-02T22:29:46.382Z,47.15
2022-11-02T22:31:48.690Z,46.00
2022-11-02T22:33:53.273Z,48.88
2022-11-02T22:35:55.182Z,47.78
2022-11-02T22:38:15.877Z,45.60
2022-11-02T22:40:20.551Z,43.75
2022-11-02T22:42:22.628Z,46.85
2022-11-02T22:44:24.725Z,48.13
2022-11-02T22:46:27.744Z,45.65
2022-11-02T22:48:33.174Z,45.85
2022-11-02T22:50:35.315Z,50.85
2022-11-02T22:52:37.439Z,43.95
2022-11-02T22:54:39.725Z,42.38
2022-11-02T22:56:43.225Z,44.75
2022-11-02T22:58:47.165Z,45.05
2022-11-02T23:00:49.419Z,47.25
2022-11-02T23:02:51.867Z,40.90
2022-11-02T23:04:53.955Z,40.92
2022-11-02T23:06:56.030Z,43.28
2022-11-02T23:08:59.202Z,39.72
2022-11-02T23:11:20.918Z,33.10
2022-11-02T23:13:23.551Z,42.78
2022-11-02T23:15:25.786Z,37.75
2022-11-02T23:17:27.969Z,38.85
2022-11-02T23:19:30.190Z,36.80
2022-11-02T23:21:32.825Z,36.15
2022-11-02T23:23:53.631Z,42.65
2022-11-02T23:25:57.491Z,40.30
2022-11-02T23:28:18.501Z,34.83
2022-11-02T23:30:39.034Z,32.67
2022-11-02T23:32:42.100Z,34.25
2022-11-02T23:35:04.119Z,32.13
2022-11-02T23:37:06.706Z,36.85
2022-11-02T23:39:27.338Z,38.03
2022-11-02T23:41:38.923Z,35.88
2022-11-02T23:43:41.370Z,37.22
2022-11-02T23:45:43.325Z,41.72
2022-11-02T23:47:57.283Z,43.55
2022-11-02T23:49:59.313Z,49.90
2022-11-02T23:52:40.175Z,52.00
2022-11-02T23:55:01.291Z,58.33
2022-11-02T23:57:03.498Z,59.15
2022-11-02T23:59:06.711Z,63.20
